Hauptseite
METAR-TAF:

METAR-TAF

Flughäfen :

Nouakchott, Mauretanien

Flughafen Nouakchott-Oumtounsy

Breite: 18-18-36N, Länge: 015-58-11W, Höhe: 3 m

Beobachtung

Neuester Wetterbericht von vor 42 Minuten, um 02:00 UTC
Wind 4 kt aus West
Temperatur 25°C
Luftfeuchtigkeit 83%
Luftdruck 1010 hPa
Sichtweite: 7000 m

METAR: GQNO 280200Z 27004KT 7000 NSC 25/22 Q1010 NOSIG

Zeit: 02:42 (02:42 UTC)

Prognose

Neuester Wetterbericht von vor 3 Stunden und 41 Minuten, um 23:01 UTC
Gültige Prognose vom 28 um 00 UTC bis 29 um 06 UTC
Wind 10 kt aus West
Sichtweite: 8000 m
Aufgelockert bewölkt in der Höhe von 1300 ft
Wahrscheinlichkeit 30%
vom 28 um 03 UTC bis 28 um 09 UTC
Durchbrochene Bewölkung in der Höhe von 1300 ft

TAF: GQNO 272301Z 2800/2906 27010KT 8000 SCT013 PROB30 2803/2809 BKN013

Wetterbeobachtungen und Prognosen von mehr als 4000 Flughäfen (METAR und TAF Bericht).

Die verfügbaren Stationen werden durch gelbe und rote Markierungen auf der Karte dargestellt.

Führen Sie die Maus auf sie, um den Namen der Station zu sehen.

Darauf klicken, um die Beobachtung von Wetterbeobachtungen und Prognosen zu sehen.

Um die Karte zu ändern : klicken Sie auf den grünen Tasten mit einem schwarzen Kreuz Zum Vergrößern, auf den grünen Button mit einem Gedankenstrich zu verkleinern, oder auf die grünen Pfeile für benachbarte Karten.


METAR-TAF: